Time;durP1;ratioP1;P1;durP2;ratioP2;P2;SDS_P1;SDS_P2;PMS_P1;PMS_P2;Temp;Humidity;BMP_temperature;BMP_pressure;BME280_temperature;BME280_humidity;BME280_pressure;Samples;Min_cycle;Max_cycle;Signal;HPM_P1;HPM_P2
2023/12/28 00:01:47;;;;;;;37.90;23.20;;;;;;;1.79;100.00;100548.68;110160;1268;21974;-82
2023/12/28 00:04:17;;;;;;;38.60;24.60;;;;;;;1.81;100.00;100553.30;109940;1268;21976;-84
2023/12/28 00:07:39;;;;;;;43.50;24.30;;;;;;;1.82;100.00;100555.02;109450;1274;22012;-81
2023/12/28 00:11:00;;;;;;;37.40;21.40;;;;;;;1.84;100.00;100550.74;109390;1273;22347;-85
2023/12/28 00:14:34;;;;;;;45.40;23.30;;;;;;;1.81;100.00;100547.14;109822;1268;23644;-83
2023/12/28 00:17:07;;;;;;;32.90;21.40;;;;;;;1.82;100.00;100542.16;109868;1268;23590;-82
2023/12/28 00:19:37;;;;;;;33.70;21.70;;;;;;;1.85;100.00;100539.42;109521;1271;22210;-79
2023/12/28 00:22:11;;;;;;;34.00;21.10;;;;;;;1.86;100.00;100538.06;109666;1271;22671;-82
2023/12/28 00:24:48;;;;;;;35.70;21.60;;;;;;;1.87;100.00;100535.30;109483;1268;21976;-81
2023/12/28 00:27:21;;;;;;;38.60;22.70;;;;;;;1.89;100.00;100531.69;109989;1268;21998;-83
2023/12/28 00:30:00;;;;;;;37.20;22.50;;;;;;;1.91;100.00;100531.17;109591;1266;22162;-81
2023/12/28 00:32:33;;;;;;;35.20;22.90;;;;;;;1.93;100.00;100527.41;109545;1273;23725;-81
2023/12/28 00:35:07;;;;;;;36.70;20.60;;;;;;;1.95;100.00;100528.09;109323;1274;22013;-82
2023/12/28 00:37:44;;;;;;;31.00;19.60;;;;;;;1.98;100.00;100521.23;109507;1270;22021;-81
2023/12/28 00:40:27;;;;;;;32.60;20.40;;;;;;;2.00;100.00;100519.17;109437;1274;22462;-83
2023/12/28 00:43:19;;;;;;;41.00;20.80;;;;;;;2.00;100.00;100515.74;109296;1274;23862;-82
2023/12/28 00:46:20;;;;;;;34.70;21.10;;;;;;;1.99;100.00;100509.57;109954;1267;22009;-82
2023/12/28 00:49:08;;;;;;;33.90;20.20;;;;;;;1.99;100.00;100505.61;110189;1267;21974;-84
2023/12/28 00:51:38;;;;;;;34.10;20.40;;;;;;;2.00;100.00;100501.31;110260;1267;21986;-82
2023/12/28 00:54:12;;;;;;;30.90;20.60;;;;;;;2.00;100.00;100500.46;109581;1271;22349;-83
2023/12/28 00:56:43;;;;;;;36.80;21.00;;;;;;;2.01;100.00;100489.98;109514;1272;21996;-82
2023/12/28 00:59:14;;;;;;;35.70;22.20;;;;;;;2.01;100.00;100484.48;109626;1268;21998;-81
2023/12/28 01:01:57;;;;;;;35.10;22.50;;;;;;;2.02;100.00;100483.30;110403;1268;21972;-80
2023/12/28 01:04:34;;;;;;;32.70;22.10;;;;;;;2.00;100.00;100482.27;110213;1268;21937;-81
2023/12/28 01:07:09;;;;;;;33.60;22.40;;;;;;;1.98;100.00;100477.30;110205;1268;22765;-80
2023/12/28 01:09:42;;;;;;;35.00;23.80;;;;;;;1.98;100.00;100473.17;110272;1267;21979;-81
2023/12/28 01:12:15;;;;;;;40.00;23.20;;;;;;;1.99;100.00;100476.10;110179;1263;24303;-81
2023/12/28 01:14:45;;;;;;;30.60;23.30;;;;;;;2.00;100.00;100471.45;110595;1263;21977;-81
2023/12/28 01:17:20;;;;;;;35.40;25.10;;;;;;;2.01;100.00;100471.95;110909;1257;23078;-81
2023/12/28 01:19:52;;;;;;;37.80;25.70;;;;;;;2.02;100.00;100469.74;110817;1263;22088;-81
2023/12/28 01:22:30;;;;;;;36.10;26.20;;;;;;;2.03;100.00;100463.39;110841;1260;23618;-81
2023/12/28 01:25:01;;;;;;;35.70;24.50;;;;;;;2.06;100.00;100462.00;110437;1265;23050;-80
2023/12/28 01:27:33;;;;;;;32.70;22.60;;;;;;;2.09;100.00;100471.61;110569;1265;21976;-81
2023/12/28 01:30:04;;;;;;;36.20;22.50;;;;;;;2.10;100.00;100477.96;110460;1265;22464;-81
2023/12/28 01:32:37;;;;;;;42.30;25.60;;;;;;;2.13;100.00;100472.64;110415;1265;21955;-81
2023/12/28 01:35:18;;;;;;;33.90;22.90;;;;;;;2.15;100.00;100466.45;110486;1265;21978;-82
2023/12/28 01:37:54;;;;;;;34.90;22.00;;;;;;;2.17;100.00;100462.33;110148;1263;23024;-80
2023/12/28 01:40:26;;;;;;;36.30;22.90;;;;;;;2.19;100.00;100458.21;110408;1263;21971;-81
2023/12/28 01:43:02;;;;;;;38.50;23.40;;;;;;;2.20;100.00;100462.34;110703;1259;22117;-81
2023/12/28 01:45:33;;;;;;;32.30;24.10;;;;;;;2.20;100.00;100456.48;111144;1259;21965;-82
2023/12/28 01:48:07;;;;;;;37.70;24.50;;;;;;;2.22;100.00;100453.39;110734;1262;21987;-81
2023/12/28 01:50:39;;;;;;;36.40;24.30;;;;;;;2.22;100.00;100449.27;110655;1261;23596;-79
2023/12/28 01:53:10;;;;;;;36.20;24.80;;;;;;;2.22;100.00;100441.55;110668;1262;21980;-79
2023/12/28 01:55:44;;;;;;;36.40;25.30;;;;;;;2.24;100.00;100430.55;110847;1259;23778;-81
2023/12/28 01:58:18;;;;;;;34.80;23.70;;;;;;;2.24;100.00;100415.45;111115;1260;23240;-80
2023/12/28 02:00:50;;;;;;;34.60;25.00;;;;;;;2.22;100.00;100407.21;110876;1262;21976;-80
2023/12/28 02:03:23;;;;;;;31.90;23.00;;;;;;;2.23;100.00;100405.66;110667;1251;23141;-80
2023/12/28 02:05:54;;;;;;;37.00;25.40;;;;;;;2.23;100.00;100399.81;110843;1260;22057;-80
2023/12/28 02:08:27;;;;;;;33.90;23.20;;;;;;;2.24;100.00;100395.87;110870;1260;22880;-80
2023/12/28 02:10:59;;;;;;;32.40;22.60;;;;;;;2.23;100.00;100383.52;110869;1260;21958;-82
2023/12/28 02:13:30;;;;;;;30.50;23.30;;;;;;;2.21;100.00;100381.11;110866;1260;22002;-81
2023/12/28 02:16:24;;;;;;;32.50;24.00;;;;;;;2.19;100.00;100376.48;110522;1265;21972;-81
2023/12/28 02:19:03;;;;;;;34.40;24.20;;;;;;;2.17;100.00;100375.96;110202;1263;24662;-81
2023/12/28 02:21:36;;;;;;;34.30;23.90;;;;;;;2.15;100.00;100370.64;110373;1264;21996;-81
2023/12/28 02:24:06;;;;;;;33.70;23.50;;;;;;;2.15;100.00;100363.80;110444;1263;22068;-81
2023/12/28 02:26:36;;;;;;;35.70;23.50;;;;;;;2.14;100.00;100368.95;110352;1263;22162;-78
2023/12/28 02:29:08;;;;;;;33.80;23.70;;;;;;;2.13;100.00;100366.73;110552;1263;21958;-78
2023/12/28 02:31:51;;;;;;;32.30;23.30;;;;;;;2.13;100.00;100362.92;110135;1267;21967;-80
2023/12/28 02:34:37;;;;;;;34.20;22.90;;;;;;;2.14;100.00;100363.10;109525;1271;22675;-80
2023/12/28 02:37:08;;;;;;;31.30;23.80;;;;;;;2.12;100.00;100364.65;109801;1268;21985;-82
2023/12/28 02:39:39;;;;;;;30.10;21.70;;;;;;;2.12;100.00;100364.64;110042;1269;22000;-81
2023/12/28 02:42:18;;;;;;;32.50;23.20;;;;;;;2.12;100.00;100357.79;110089;1267;23635;-80
2023/12/28 02:44:51;;;;;;;33.60;22.60;;;;;;;2.12;100.00;100354.00;110063;1269;22074;-80
2023/12/28 02:47:21;;;;;;;33.70;21.20;;;;;;;2.04;100.00;100339.27;110227;1269;21985;-82
2023/12/28 02:49:59;;;;;;;34.10;22.30;;;;;;;2.10;100.00;100344.75;110203;1264;21971;-80
2023/12/28 02:52:29;;;;;;;42.80;33.10;;;;;;;2.09;100.00;100338.74;110135;1265;21979;-81
2023/12/28 02:55:06;;;;;;;38.50;25.50;;;;;;;2.09;100.00;100334.10;110568;1264;21995;-83
2023/12/28 02:57:38;;;;;;;39.80;24.30;;;;;;;2.09;100.00;100332.73;110423;1265;21991;-80
2023/12/28 03:00:12;;;;;;;33.90;24.80;;;;;;;2.07;100.00;100328.63;109621;1270;22414;-82
2023/12/28 03:02:43;;;;;;;34.90;24.00;;;;;;;2.06;100.00;100325.02;110189;1265;23047;-81
2023/12/28 03:05:19;;;;;;;34.70;23.70;;;;;;;2.06;100.00;100317.81;110567;1265;23699;-81
2023/12/28 03:07:55;;;;;;;34.60;24.10;;;;;;;2.04;100.00;100313.02;110556;1264;22722;-80
2023/12/28 03:10:25;;;;;;;36.70;25.70;;;;;;;2.04;100.00;100312.67;110537;1259;21972;-81
2023/12/28 03:12:55;;;;;;;36.10;24.90;;;;;;;2.04;100.00;100306.14;111005;1259;22102;-81
2023/12/28 03:15:28;;;;;;;33.70;24.80;;;;;;;2.02;100.00;100291.91;110944;1259;21969;-82
2023/12/28 03:17:58;;;;;;;32.60;23.70;;;;;;;2.00;100.00;100287.79;111106;1260;22041;-83
2023/12/28 03:20:29;;;;;;;31.40;23.30;;;;;;;1.99;100.00;100285.57;110366;1265;21990;-80
2023/12/28 03:22:59;;;;;;;30.90;23.50;;;;;;;1.98;100.00;100286.08;110202;1265;22011;-81
2023/12/28 03:25:29;;;;;;;30.00;23.10;;;;;;;1.98;100.00;100282.13;110376;1263;21939;-80
2023/12/28 03:28:02;;;;;;;30.70;22.80;;;;;;;1.97;100.00;100270.64;110472;1263;23600;-81
2023/12/28 03:30:42;;;;;;;36.70;25.10;;;;;;;1.97;100.00;100270.30;110641;1263;22464;-80
2023/12/28 03:33:12;;;;;;;41.20;26.70;;;;;;;1.97;100.00;100264.96;110719;1263;22733;-82
2023/12/28 03:35:48;;;;;;;32.70;23.80;;;;;;;1.99;100.00;100260.66;110635;1263;22010;-80
2023/12/28 03:38:18;;;;;;;32.20;22.90;;;;;;;2.00;100.00;100248.83;110993;1258;21998;-80
2023/12/28 03:40:51;;;;;;;32.20;24.40;;;;;;;2.02;100.00;100235.94;110973;1259;22415;-82
2023/12/28 03:43:22;;;;;;;31.10;23.60;;;;;;;2.03;100.00;100236.28;110661;1261;22868;-82
2023/12/28 03:45:55;;;;;;;32.20;22.10;;;;;;;2.05;100.00;100237.30;110918;1261;22721;-79
2023/12/28 03:48:27;;;;;;;27.40;21.20;;;;;;;2.08;100.00;100245.36;110835;1261;22014;-80
2023/12/28 03:51:04;;;;;;;32.80;22.10;;;;;;;2.09;100.00;100250.50;110734;1261;21968;-81
2023/12/28 03:53:35;;;;;;;35.60;24.00;;;;;;;2.13;100.00;100254.08;110738;1261;24313;-81
2023/12/28 03:56:05;;;;;;;27.20;20.80;;;;;;;2.16;100.00;100252.69;110910;1261;24288;-82
2023/12/28 03:58:38;;;;;;;30.10;21.20;;;;;;;2.21;100.00;100252.50;110751;1255;23037;-80
2023/12/28 04:01:10;;;;;;;29.60;20.30;;;;;;;2.27;100.00;100253.51;111066;1255;21972;-81
2023/12/28 04:03:40;;;;;;;26.80;20.40;;;;;;;2.31;100.00;100247.81;111347;1255;21980;-82
2023/12/28 04:06:12;;;;;;;27.90;21.90;;;;;;;2.34;100.00;100236.97;111085;1259;22913;-83
2023/12/28 04:08:42;;;;;;;29.10;21.80;;;;;;;2.34;100.00;100230.96;111109;1259;24299;-82
2023/12/28 04:11:18;;;;;;;26.00;20.70;;;;;;;2.33;100.00;100228.55;110977;1258;21951;-82
2023/12/28 04:13:50;;;;;;;33.20;24.30;;;;;;;2.34;100.00;100221.86;111032;1258;22833;-80
2023/12/28 04:16:20;;;;;;;32.70;23.00;;;;;;;2.36;100.00;100215.33;111129;1258;21966;-82
2023/12/28 04:18:51;;;;;;;29.60;21.80;;;;;;;2.29;100.00;100200.61;110925;1258;23737;-80
2023/12/28 04:21:21;;;;;;;30.20;21.50;;;;;;;2.36;100.00;100211.21;110644;1264;23693;-83
2023/12/28 04:23:51;;;;;;;38.80;30.90;;;;;;;2.36;100.00;100210.17;110806;1260;22716;-81
2023/12/28 04:26:22;;;;;;;29.40;22.90;;;;;;;2.39;100.00;100207.94;110988;1260;22062;-82
2023/12/28 04:28:57;;;;;;;32.00;23.90;;;;;;;2.42;100.00;100200.86;110522;1264;21987;-81
2023/12/28 04:31:34;;;;;;;26.60;21.40;;;;;;;2.44;100.00;100198.63;109675;1265;21979;-81
2023/12/28 04:34:06;;;;;;;29.30;22.20;;;;;;;2.46;100.00;100200.16;109145;1276;24045;-82
2023/12/28 04:36:46;;;;;;;29.90;22.50;;;;;;;2.49;100.00;100200.46;109162;1276;22026;-81
2023/12/28 04:39:17;;;;;;;26.60;21.80;;;;;;;2.52;100.00;100199.41;109489;1272;23634;-81
2023/12/28 04:41:58;;;;;;;32.30;24.20;;;;;;;2.53;100.00;100188.41;109235;1276;22488;-83
2023/12/28 04:44:31;;;;;;;27.40;22.00;;;;;;;2.52;100.00;100187.74;109163;1276;22068;-80
2023/12/28 04:47:07;;;;;;;26.80;20.00;;;;;;;2.51;100.00;100186.71;109520;1272;21991;-82
2023/12/28 04:49:38;;;;;;;26.70;21.10;;;;;;;2.51;100.00;100184.31;109710;1267;22006;-82
2023/12/28 04:52:08;;;;;;;24.80;20.20;;;;;;;2.50;100.00;100175.55;110575;1261;23884;-81
2023/12/28 04:54:42;;;;;;;27.30;20.10;;;;;;;2.48;100.00;100170.08;110784;1261;21995;-81
2023/12/28 04:57:18;;;;;;;50.80;45.00;;;;;;;2.48;100.00;100167.16;110799;1261;21989;-82
2023/12/28 04:59:56;;;;;;;33.00;22.30;;;;;;;2.46;100.00;100152.91;110723;1259;24273;-82
2023/12/28 05:02:39;;;;;;;27.40;20.90;;;;;;;2.48;100.00;100154.43;110629;1265;23617;-83
2023/12/28 05:05:15;;;;;;;25.90;19.60;;;;;;;2.50;100.00;100149.77;110267;1264;22009;-81
2023/12/28 05:07:50;;;;;;;25.30;19.80;;;;;;;2.53;100.00;100148.89;110478;1265;22984;-82
2023/12/28 05:10:20;;;;;;;24.40;19.40;;;;;;;2.58;100.00;100148.69;109748;1269;21978;-81
2023/12/28 05:12:51;;;;;;;28.10;18.70;;;;;;;2.62;100.00;100144.88;109709;1269;22001;-80
2023/12/28 05:15:27;;;;;;;23.40;17.50;;;;;;;2.67;100.00;100143.13;110040;1269;21974;-81
2023/12/28 05:18:02;;;;;;;25.00;17.60;;;;;;;2.73;100.00;100143.75;109775;1272;22453;-80
2023/12/28 05:20:39;;;;;;;23.20;16.10;;;;;;;2.77;100.00;100146.12;109852;1266;22068;-81
2023/12/28 05:23:18;;;;;;;20.20;14.80;;;;;;;2.81;100.00;100154.16;109729;1269;21991;-83
2023/12/28 05:25:48;;;;;;;18.80;16.40;;;;;;;2.85;100.00;100153.95;109387;1275;23636;-82
2023/12/28 05:28:27;;;;;;;24.40;18.70;;;;;;;2.89;100.00;100158.02;109409;1275;22629;-81
2023/12/28 05:31:03;;;;;;;23.50;17.50;;;;;;;2.94;100.00;100165.40;109093;1277;24360;-80
2023/12/28 05:33:35;;;;;;;22.70;17.60;;;;;;;2.96;100.00;100166.40;109493;1276;22482;-81
2023/12/28 05:36:15;;;;;;;21.50;16.60;;;;;;;2.98;100.00;100161.91;109661;1273;23553;-80
2023/12/28 05:38:48;;;;;;;21.70;15.90;;;;;;;2.98;100.00;100166.21;109454;1273;21987;-80
2023/12/28 05:41:21;;;;;;;25.80;16.20;;;;;;;3.00;100.00;100175.98;109671;1273;21995;-83
2023/12/28 05:44:08;;;;;;;23.10;17.10;;;;;;;3.04;100.00;100174.92;110016;1267;22785;-80
2023/12/28 05:46:40;;;;;;;51.70;41.50;;;;;;;3.06;100.00;100170.59;110042;1267;22149;-79
2023/12/28 05:49:16;;;;;;;41.90;29.60;;;;;;;3.09;100.00;100167.13;110953;1259;21927;-81
2023/12/28 05:51:51;;;;;;;23.30;17.20;;;;;;;3.14;100.00;100170.00;111235;1258;22632;-81
2023/12/28 05:54:27;;;;;;;24.50;15.20;;;;;;;3.19;100.00;100181.30;110685;1263;21973;-82
2023/12/28 05:56:59;;;;;;;21.00;14.60;;;;;;;3.23;100.00;100186.58;110829;1263;22445;-81
2023/12/28 05:59:31;;;;;;;21.00;16.20;;;;;;;3.23;100.00;100186.59;110856;1263;23702;-81
2023/12/28 06:02:08;;;;;;;25.60;19.30;;;;;;;3.22;100.00;100182.99;109882;1270;21992;-80
2023/12/28 06:04:39;;;;;;;23.30;16.90;;;;;;;3.21;100.00;100185.58;110122;1265;21992;-81
2023/12/28 06:07:09;;;;;;;26.00;18.60;;;;;;;3.12;100.00;100168.65;110199;1265;21955;-79
2023/12/28 06:09:42;;;;;;;26.40;20.80;;;;;;;3.23;100.00;100179.72;110548;1265;22349;-82
2023/12/28 06:12:19;;;;;;;34.50;24.70;;;;;;;3.26;100.00;100181.40;109861;1266;23049;-80
2023/12/28 06:14:59;;;;;;;32.70;25.20;;;;;;;3.28;100.00;100182.74;109816;1266;21999;-82
2023/12/28 06:17:33;;;;;;;29.00;23.10;;;;;;;3.28;100.00;100184.30;110360;1265;23674;-82
2023/12/28 06:20:05;;;;;;;37.30;28.40;;;;;;;3.27;100.00;100187.05;110561;1258;23634;-81
2023/12/28 06:22:38;;;;;;;34.90;27.50;;;;;;;3.27;100.00;100181.04;111032;1258;21997;-80
2023/12/28 06:25:16;;;;;;;37.90;32.40;;;;;;;3.29;100.00;100172.77;110976;1258;23690;-81
2023/12/28 06:27:46;;;;;;;40.10;35.30;;;;;;;3.33;100.00;100178.92;110387;1265;21968;-80
2023/12/28 06:30:19;;;;;;;36.50;29.40;;;;;;;3.37;100.00;100182.65;110272;1265;23594;-82
2023/12/28 06:32:53;;;;;;;40.20;34.60;;;;;;;3.39;100.00;100180.73;110555;1264;22048;-80
2023/12/28 06:35:26;;;;;;;29.70;25.80;;;;;;;3.39;100.00;100175.40;110443;1264;21984;-81
2023/12/28 06:37:58;;;;;;;;;;;;;;;3.39;100.00;100173.02;110725;1260;21967;-81
2023/12/28 06:40:35;;;;;;;30.10;23.90;;;;;;;3.31;100.00;100179.63;110267;1266;21973;-81
2023/12/28 06:43:08;;;;;;;45.90;31.30;;;;;;;3.32;100.00;100177.56;110287;1266;23200;-82
2023/12/28 06:45:38;;;;;;;45.80;28.90;;;;;;;3.35;100.00;100178.55;109527;1271;22014;-82
2023/12/28 06:48:10;;;;;;;73.40;49.20;;;;;;;3.40;100.00;100181.77;109789;1271;21978;-82
2023/12/28 06:50:41;;;;;;;65.90;42.30;;;;;;;3.45;100.00;100178.79;109756;1271;21991;-81
2023/12/28 06:53:12;;;;;;;28.00;20.10;;;;;;;3.51;100.00;100185.95;109702;1271;21944;-82
2023/12/28 06:55:46;;;;;;;23.10;19.60;;;;;;;3.59;100.00;100192.39;109669;1271;21968;-81
2023/12/28 06:58:16;;;;;;;15.90;12.90;;;;;;;3.67;100.00;100193.32;109863;1260;22025;-81
2023/12/28 07:00:52;;;;;;;31.10;13.60;;;;;;;3.76;100.00;100196.48;110342;1267;23050;-81
2023/12/28 07:03:25;;;;;;;34.80;25.20;;;;;;;3.86;100.00;100205.83;110000;1267;23042;-83
2023/12/28 07:06:05;;;;;;;40.20;27.90;;;;;;;3.98;100.00;100207.91;109765;1271;23709;-88
2023/12/28 07:08:37;;;;;;;43.90;31.30;;;;;;;4.12;100.00;100208.09;109663;1271;22748;-84
2023/12/28 07:11:13;;;;;;;32.70;21.70;;;;;;;4.25;100.00;100204.45;109599;1262;23035;-84
2023/12/28 07:13:50;;;;;;;25.80;16.50;;;;;;;4.39;100.00;100205.45;109260;1276;23138;-85
2023/12/28 07:16:24;;;;;;;46.30;27.60;;;;;;;4.53;100.00;100211.10;108847;1282;21995;-85
2023/12/28 07:18:54;;;;;;;53.30;30.50;;;;;;;4.68;100.00;100214.14;108875;1280;22032;-80
2023/12/28 07:21:31;;;;;;;31.50;17.30;;;;;;;4.83;100.00;100210.63;109037;1280;22034;-84
2023/12/28 07:24:13;;;;;;;41.90;23.40;;;;;;;4.96;100.00;100214.04;108801;1283;22976;-83
2023/12/28 07:26:50;;;;;;;17.80;11.00;;;;;;;5.09;100.00;100224.16;108571;1278;23082;-83
2023/12/28 07:29:50;;;;;;;35.70;22.60;;;;;;;5.17;100.00;100208.16;108892;1274;208175;-83
2023/12/28 07:32:29;;;;;;;31.40;15.10;;;;;;;5.38;100.00;100229.17;109645;1270;22563;-83
2023/12/28 07:35:02;;;;;;;27.90;17.00;;;;;;;5.52;100.00;100232.20;109726;1270;21998;-82
2023/12/28 07:37:39;;;;;;;16.80;10.90;;;;;;;5.65;100.00;100237.81;110305;1265;21989;-82
2023/12/28 07:40:17;;;;;;;18.20;10.00;;;;;;;5.78;100.00;100242.56;110371;1259;21992;-83
2023/12/28 07:43:01;;;;;;;12.40;8.80;;;;;;;5.89;100.00;100246.34;111010;1259;21943;-83
2023/12/28 07:45:41;;;;;;;11.90;8.10;;;;;;;5.97;100.00;100246.19;110565;1265;23423;-83
2023/12/28 07:48:25;;;;;;;18.40;10.80;;;;;;;6.05;100.00;100254.84;110815;1260;21970;-81
2023/12/28 07:51:13;;;;;;;16.40;11.10;;;;;;;6.11;100.00;100262.31;111001;1260;21966;-81
2023/12/28 07:53:53;;;;;;;16.20;10.80;;;;;;;6.17;100.00;100266.33;110565;1265;22063;-84
2023/12/28 07:56:31;;;;;;;24.50;10.70;;;;;;;6.22;100.00;100268.98;110162;1265;21971;-82
2023/12/28 07:59:09;;;;;;;29.80;12.90;;;;;;;6.27;100.00;100270.77;110496;1265;21999;-81
2023/12/28 08:01:39;;;;;;;16.50;11.20;;;;;;;6.34;100.00;100270.98;110155;1269;21978;-83
2023/12/28 08:04:15;;;;;;;19.60;11.70;;;;;;;6.40;100.00;100273.80;110453;1262;21968;-81
2023/12/28 08:06:53;;;;;;;19.90;13.60;;;;;;;6.37;100.00;100254.49;109914;1268;24349;-84
2023/12/28 08:09:35;;;;;;;17.90;11.50;;;;;;;6.46;100.00;100263.46;110316;1268;21993;-87
2023/12/28 08:12:09;;;;;;;18.90;11.70;;;;;;;6.47;100.00;100267.77;110078;1263;22061;-86
2023/12/28 08:14:59;;;;;;;22.80;16.70;;;;;;;6.50;100.00;100275.83;110872;1251;23138;-85
2023/12/28 08:17:49;;;;;;;18.30;14.50;;;;;;;6.50;100.00;100280.85;110055;1268;22007;-87
2023/12/28 08:20:27;;;;;;;32.60;20.20;;;;;;;6.50;100.00;100280.31;109793;1268;22728;-87
2023/12/28 08:23:06;;;;;;;25.40;14.60;;;;;;;6.52;100.00;100273.37;110163;1268;23629;-87
2023/12/28 08:26:07;;;;;;;21.90;13.60;;;;;;;6.53;100.00;100271.79;110554;1259;21976;-86
2023/12/28 08:28:40;;;;;;;24.20;16.70;;;;;;;6.57;100.00;100277.41;111022;1259;21999;-87
2023/12/28 08:31:21;;;;;;;25.50;19.00;;;;;;;6.60;100.00;100270.08;111198;1259;23716;-87
2023/12/28 08:33:59;;;;;;;26.80;15.50;;;;;;;6.63;100.00;100263.44;110418;1264;22072;-89
2023/12/28 08:36:37;;;;;;;35.20;17.90;;;;;;;6.66;100.00;100265.79;110525;1261;22810;-86
2023/12/28 08:39:18;;;;;;;20.60;14.50;;;;;;;6.70;100.00;100269.33;110908;1261;21979;-85
2023/12/28 08:41:58;;;;;;;22.90;15.70;;;;;;;6.75;100.00;100269.21;110844;1261;21996;-82
2023/12/28 08:44:30;;;;;;;23.10;17.10;;;;;;;6.82;100.00;100266.11;110197;1261;23714;-80
2023/12/28 08:47:06;;;;;;;24.20;19.20;;;;;;;6.89;100.00;100267.33;110679;1261;21992;-82
2023/12/28 08:49:45;;;;;;;34.50;20.30;;;;;;;6.95;100.00;100279.29;110740;1261;22813;-82
2023/12/28 08:52:18;;;;;;;30.30;20.70;;;;;;;7.01;100.00;100277.06;110644;1260;22005;-81
2023/12/28 08:54:58;;;;;;;25.20;17.10;;;;;;;7.06;100.00;100286.30;110910;1256;21991;-81
2023/12/28 08:57:31;;;;;;;26.30;18.20;;;;;;;7.09;100.00;100295.89;110811;1260;22677;-83
2023/12/28 09:00:26;;;;;;;23.30;17.20;;;;;;;7.13;100.00;100301.70;111039;1260;22674;-81
2023/12/28 09:02:57;;;;;;;29.20;17.40;;;;;;;7.16;100.00;100297.65;110433;1265;23059;-81
2023/12/28 09:05:28;;;;;;;20.50;14.60;;;;;;;7.19;100.00;100294.96;110793;1265;21522;-81
2023/12/28 09:08:09;;;;;;;23.40;15.40;;;;;;;7.22;100.00;100292.13;110502;1265;23977;-82
2023/12/28 09:10:42;;;;;;;18.30;14.90;;;;;;;7.26;100.00;100284.94;110911;1260;21986;-82
2023/12/28 09:13:31;;;;;;;18.30;14.40;;;;;;;7.29;100.00;100282.08;110575;1265;22206;-81
2023/12/28 09:16:14;;;;;;;22.40;15.50;;;;;;;7.33;100.00;100285.95;110576;1266;22001;-83
2023/12/28 09:18:46;;;;;;;21.90;17.90;;;;;;;7.36;100.00;100286.23;110558;1262;21993;-81
2023/12/28 09:21:35;;;;;;;29.70;23.80;;;;;;;7.37;100.00;100287.25;110480;1265;23603;-81
2023/12/28 09:24:15;;;;;;;24.40;20.10;;;;;;;7.38;100.00;100289.98;110471;1264;23598;-81
2023/12/28 09:26:55;;;;;;;27.90;19.30;;;;;;;7.41;100.00;100284.55;110716;1265;21996;-83
2023/12/28 09:29:35;;;;;;;23.10;18.20;;;;;;;7.43;100.00;100278.60;110013;1267;23630;-80
2023/12/28 09:32:11;;;;;;;20.60;15.90;;;;;;;7.47;100.00;100287.15;110586;1263;21983;-82
2023/12/28 09:34:48;;;;;;;19.70;15.70;;;;;;;7.53;100.00;100289.10;110438;1263;21979;-84
2023/12/28 09:37:29;;;;;;;21.50;16.00;;;;;;;7.55;100.00;100286.09;110576;1258;22502;-82
2023/12/28 09:40:03;;;;;;;22.60;16.80;;;;;;;7.58;100.00;100275.10;110674;1263;21935;-83
2023/12/28 09:43:04;;;;;;;28.80;18.60;;;;;;;7.59;100.00;100281.98;110755;1263;23790;-86
2023/12/28 09:45:59;;;;;;;28.00;19.50;;;;;;;7.57;100.00;100283.09;110486;1258;21961;-81
2023/12/28 09:48:32;;;;;;;30.00;17.40;;;;;;;7.60;100.00;100271.08;110833;1261;22318;-80
2023/12/28 09:51:10;;;;;;;22.70;17.50;;;;;;;7.65;100.00;100270.07;110407;1263;21969;-83
2023/12/28 09:53:50;;;;;;;26.80;17.20;;;;;;;7.70;100.00;100273.59;110183;1267;21977;-83
2023/12/28 09:56:30;;;;;;;29.60;19.80;;;;;;;7.76;100.00;100265.98;110097;1267;22995;-81
2023/12/28 09:59:15;;;;;;;29.20;20.70;;;;;;;7.83;100.00;100266.48;110208;1264;22979;-82
2023/12/28 10:02:13;;;;;;;;;;;;;;;7.86;100.00;100258.74;109908;1268;23065;-85
2023/12/28 10:05:15;;;;;;;38.50;20.50;;;;;;;7.84;100.00;100272.67;110129;1268;22902;-75
2023/12/28 10:08:03;;;;;;;35.80;25.10;;;;;;;7.89;100.00;100284.66;109975;1268;23702;-77
2023/12/28 10:15:33;;;;;;;28.10;18.20;;;;;;;7.97;100.00;100286.33;109357;1273;22451;-77
2023/12/28 10:19:46;;;;;;;;;;;;;;;;;;;;;
2023/12/28 10:23:30;;;;;;;;;;;;;;;;;;;;;
2023/12/28 10:27:05;;;;;;;;;;;;;;;;;;;;;
2023/12/28 10:30:35;;;;;;;28.70;18.70;;;;;;;8.38;100.00;100257.08;108919;1270;23035;-77
2023/12/28 10:35:03;;;;;;;30.20;19.50;;;;;;;8.41;100.00;100246.77;108915;1269;23324;-79
2023/12/28 10:38:03;;;;;;;24.00;16.90;;;;;;;8.52;100.00;100255.45;108631;1281;23823;-86
2023/12/28 10:40:39;;;;;;;24.00;15.50;;;;;;;8.62;100.00;100260.53;108793;1282;22412;-84
2023/12/28 10:43:22;;;;;;;23.00;17.40;;;;;;;8.72;100.00;100256.91;108918;1281;23711;-83
2023/12/28 10:46:02;;;;;;;34.50;25.60;;;;;;;8.81;100.00;100251.27;108886;1283;22754;-83
2023/12/28 10:48:42;;;;;;;22.10;17.90;;;;;;;8.86;100.00;100249.02;108788;1281;23622;-82
2023/12/28 10:51:29;;;;;;;27.50;20.00;;;;;;;8.95;100.00;100245.94;108916;1278;22007;-84
2023/12/28 10:54:33;;;;;;;25.80;22.70;;;;;;;9.00;100.00;100241.11;109071;1281;22017;-84
2023/12/28 10:57:54;;;;;;;21.70;18.00;;;;;;;9.04;100.00;100243.73;109212;1279;22000;-88
2023/12/28 11:01:06;;;;;;;22.40;15.70;;;;;;;9.04;100.00;100247.55;109359;1275;22044;-85
2023/12/28 11:04:43;;;;;;;29.50;17.80;;;;;;;9.06;100.00;100250.44;109516;1276;22120;-84
2023/12/28 11:07:25;;;;;;;30.30;18.60;;;;;;;9.12;100.00;100245.03;109594;1272;23016;-86
2023/12/28 11:10:20;;;;;;;28.80;16.70;;;;;;;9.23;100.00;100240.67;109611;1272;21981;-85
2023/12/28 11:13:01;;;;;;;32.10;21.30;;;;;;;9.32;100.00;100239.48;109534;1272;23671;-88
2023/12/28 11:16:01;;;;;;;29.90;18.00;;;;;;;9.37;100.00;100241.25;109957;1268;23603;-87
2023/12/28 11:18:51;;;;;;;36.80;18.50;;;;;;;9.39;100.00;100249.85;110496;1262;21971;-89
2023/12/28 11:21:45;;;;;;;28.00;20.80;;;;;;;9.41;100.00;100250.14;111112;1262;22019;-86
2023/12/28 11:24:37;;;;;;;37.10;27.00;;;;;;;9.39;100.00;100240.83;110832;1262;22045;-87
2023/12/28 11:28:00;;;;;;;40.00;29.10;;;;;;;9.40;100.00;100244.44;110979;1249;23024;-87
2023/12/28 11:30:59;;;;;;;38.00;22.60;;;;;;;9.38;100.00;100241.90;111273;1262;22044;-84
2023/12/28 11:33:56;;;;;;;35.20;21.80;;;;;;;9.40;100.00;100240.43;110894;1261;22326;-87
2023/12/28 11:37:10;;;;;;;22.40;16.70;;;;;;;9.44;100.00;100243.27;110881;1255;21980;-87
2023/12/28 11:40:15;;;;;;;30.20;22.60;;;;;;;9.48;100.00;100249.55;111804;1255;22010;-86
2023/12/28 11:43:18;;;;;;;24.70;18.40;;;;;;;9.52;100.00;100250.42;111639;1255;21929;-88
2023/12/28 11:46:04;;;;;;;23.20;17.10;;;;;;;9.57;100.00;100243.14;111517;1256;21996;-87
2023/12/28 11:49:05;;;;;;;31.80;21.40;;;;;;;9.59;100.00;100233.67;111485;1255;22020;-84
2023/12/28 11:52:16;;;;;;;21.50;16.30;;;;;;;9.65;100.00;100242.70;111717;1255;22441;-86
2023/12/28 11:58:36;;;;;;;27.50;16.10;;;;;;;9.69;100.00;100244.62;111237;1261;21983;-85
2023/12/28 12:01:26;;;;;;;24.70;13.50;;;;;;;9.72;100.00;100239.30;110977;1261;21989;-85
2023/12/28 12:04:28;;;;;;;24.30;13.70;;;;;;;9.72;100.00;100237.42;111060;1261;21972;-86
2023/12/28 12:07:26;;;;;;;26.80;14.70;;;;;;;9.72;100.00;100240.90;109946;1267;22051;-86
2023/12/28 12:10:17;;;;;;;23.30;14.10;;;;;;;9.71;100.00;100246.12;110274;1267;22249;-86
2023/12/28 12:13:02;;;;;;;17.50;13.40;;;;;;;9.71;100.00;100241.45;110551;1261;21976;-86
2023/12/28 12:15:52;;;;;;;20.80;13.50;;;;;;;9.70;100.00;100239.39;111117;1261;21978;-85